sensor_id;sensor_type;location;lat;lon;timestamp;P1;durP1;ratioP1;P2;durP2;ratioP2
55300;SDS011;58302;51.446;-2.000;2022-07-29T00:02:13;3.42;;;2.53;;
55300;SDS011;58302;51.446;-2.000;2022-07-29T00:04:39;3.25;;;2.85;;
55300;SDS011;58302;51.446;-2.000;2022-07-29T00:07:05;4.93;;;4.07;;
55300;SDS011;58302;51.446;-2.000;2022-07-29T00:09:32;4.13;;;3.10;;
55300;SDS011;58302;51.446;-2.000;2022-07-29T00:11:59;4.63;;;3.42;;
55300;SDS011;58302;51.446;-2.000;2022-07-29T00:14:26;6.55;;;3.42;;
55300;SDS011;58302;51.446;-2.000;2022-07-29T00:16:53;3.67;;;3.17;;
55300;SDS011;58302;51.446;-2.000;2022-07-29T00:19:19;4.03;;;3.63;;
55300;SDS011;58302;51.446;-2.000;2022-07-29T00:21:45;5.65;;;3.72;;
55300;SDS011;58302;51.446;-2.000;2022-07-29T00:24:11;5.50;;;3.00;;
55300;SDS011;58302;51.446;-2.000;2022-07-29T00:26:37;4.95;;;3.05;;
55300;SDS011;58302;51.446;-2.000;2022-07-29T00:29:03;3.38;;;2.95;;
55300;SDS011;58302;51.446;-2.000;2022-07-29T00:31:30;3.80;;;2.70;;
55300;SDS011;58302;51.446;-2.000;2022-07-29T00:33:56;3.70;;;2.70;;
55300;SDS011;58302;51.446;-2.000;2022-07-29T00:36:22;2.95;;;2.67;;
55300;SDS011;58302;51.446;-2.000;2022-07-29T00:38:49;6.45;;;3.10;;
55300;SDS011;58302;51.446;-2.000;2022-07-29T00:41:16;5.22;;;3.30;;
55300;SDS011;58302;51.446;-2.000;2022-07-29T00:43:43;4.10;;;3.13;;
55300;SDS011;58302;51.446;-2.000;2022-07-29T00:46:10;8.02;;;3.97;;
55300;SDS011;58302;51.446;-2.000;2022-07-29T00:48:37;3.80;;;3.30;;
55300;SDS011;58302;51.446;-2.000;2022-07-29T00:51:04;6.57;;;3.90;;
55300;SDS011;58302;51.446;-2.000;2022-07-29T00:53:31;5.45;;;3.05;;
55300;SDS011;58302;51.446;-2.000;2022-07-29T00:55:58;7.75;;;3.42;;
55300;SDS011;58302;51.446;-2.000;2022-07-29T00:58:24;5.78;;;3.33;;
55300;SDS011;58302;51.446;-2.000;2022-07-29T01:00:52;3.25;;;2.90;;
55300;SDS011;58302;51.446;-2.000;2022-07-29T01:03:18;4.85;;;2.70;;
55300;SDS011;58302;51.446;-2.000;2022-07-29T01:05:44;3.92;;;2.92;;
55300;SDS011;58302;51.446;-2.000;2022-07-29T01:08:12;5.00;;;2.83;;
55300;SDS011;58302;51.446;-2.000;2022-07-29T01:10:40;3.35;;;2.80;;
55300;SDS011;58302;51.446;-2.000;2022-07-29T01:13:09;4.95;;;3.30;;
55300;SDS011;58302;51.446;-2.000;2022-07-29T01:15:47;8.05;;;3.13;;
55300;SDS011;58302;51.446;-2.000;2022-07-29T01:18:22;5.65;;;2.83;;
55300;SDS011;58302;51.446;-2.000;2022-07-29T01:29:54;7.43;;;3.40;;
55300;SDS011;58302;51.446;-2.000;2022-07-29T01:32:24;6.38;;;3.33;;
55300;SDS011;58302;51.446;-2.000;2022-07-29T01:35:10;6.97;;;3.50;;
55300;SDS011;58302;51.446;-2.000;2022-07-29T01:38:00;6.60;;;3.40;;
55300;SDS011;58302;51.446;-2.000;2022-07-29T01:40:34;5.78;;;3.13;;
55300;SDS011;58302;51.446;-2.000;2022-07-29T01:43:09;5.03;;;3.28;;
55300;SDS011;58302;51.446;-2.000;2022-07-29T01:45:40;6.25;;;3.20;;
55300;SDS011;58302;51.446;-2.000;2022-07-29T01:50:51;5.28;;;3.45;;
55300;SDS011;58302;51.446;-2.000;2022-07-29T01:53:25;5.72;;;3.63;;
55300;SDS011;58302;51.446;-2.000;2022-07-29T01:55:56;4.82;;;3.45;;
55300;SDS011;58302;51.446;-2.000;2022-07-29T01:58:25;3.90;;;3.22;;
55300;SDS011;58302;51.446;-2.000;2022-07-29T02:00:54;5.03;;;3.47;;
55300;SDS011;58302;51.446;-2.000;2022-07-29T02:03:23;4.18;;;2.90;;
55300;SDS011;58302;51.446;-2.000;2022-07-29T02:05:49;5.90;;;3.50;;
55300;SDS011;58302;51.446;-2.000;2022-07-29T02:08:18;3.47;;;3.10;;
55300;SDS011;58302;51.446;-2.000;2022-07-29T02:10:45;6.53;;;3.85;;
55300;SDS011;58302;51.446;-2.000;2022-07-29T02:13:13;6.45;;;3.25;;
55300;SDS011;58302;51.446;-2.000;2022-07-29T02:15:42;7.40;;;4.22;;
55300;SDS011;58302;51.446;-2.000;2022-07-29T02:18:16;5.53;;;4.57;;
55300;SDS011;58302;51.446;-2.000;2022-07-29T02:20:45;5.80;;;3.50;;
55300;SDS011;58302;51.446;-2.000;2022-07-29T02:23:14;4.50;;;3.58;;
55300;SDS011;58302;51.446;-2.000;2022-07-29T02:25:43;4.00;;;3.58;;
55300;SDS011;58302;51.446;-2.000;2022-07-29T02:28:10;5.75;;;3.63;;
55300;SDS011;58302;51.446;-2.000;2022-07-29T02:30:39;5.28;;;3.53;;
55300;SDS011;58302;51.446;-2.000;2022-07-29T02:33:07;5.90;;;3.33;;
55300;SDS011;58302;51.446;-2.000;2022-07-29T02:35:35;4.43;;;3.58;;
55300;SDS011;58302;51.446;-2.000;2022-07-29T02:38:02;6.35;;;3.65;;
55300;SDS011;58302;51.446;-2.000;2022-07-29T02:43:13;6.40;;;3.38;;
55300;SDS011;58302;51.446;-2.000;2022-07-29T02:45:40;3.92;;;3.35;;
55300;SDS011;58302;51.446;-2.000;2022-07-29T02:48:09;4.90;;;3.40;;
55300;SDS011;58302;51.446;-2.000;2022-07-29T02:50:43;8.50;;;3.30;;
55300;SDS011;58302;51.446;-2.000;2022-07-29T02:53:16;3.72;;;3.33;;
55300;SDS011;58302;51.446;-2.000;2022-07-29T02:55:51;6.38;;;3.85;;
55300;SDS011;58302;51.446;-2.000;2022-07-29T02:58:40;6.63;;;3.50;;
55300;SDS011;58302;51.446;-2.000;2022-07-29T03:01:17;6.82;;;3.00;;
55300;SDS011;58302;51.446;-2.000;2022-07-29T03:03:48;5.05;;;3.45;;
55300;SDS011;58302;51.446;-2.000;2022-07-29T03:06:17;5.93;;;4.18;;
55300;SDS011;58302;51.446;-2.000;2022-07-29T03:08:44;5.65;;;2.95;;
55300;SDS011;58302;51.446;-2.000;2022-07-29T03:11:12;4.38;;;3.30;;
55300;SDS011;58302;51.446;-2.000;2022-07-29T03:13:39;5.18;;;3.10;;
55300;SDS011;58302;51.446;-2.000;2022-07-29T03:16:06;5.10;;;3.35;;
55300;SDS011;58302;51.446;-2.000;2022-07-29T03:18:34;6.47;;;4.10;;
55300;SDS011;58302;51.446;-2.000;2022-07-29T03:21:02;6.82;;;3.45;;
55300;SDS011;58302;51.446;-2.000;2022-07-29T03:23:29;5.22;;;3.55;;
55300;SDS011;58302;51.446;-2.000;2022-07-29T03:25:56;5.40;;;3.88;;
55300;SDS011;58302;51.446;-2.000;2022-07-29T03:28:22;5.20;;;3.83;;
55300;SDS011;58302;51.446;-2.000;2022-07-29T03:30:49;6.07;;;3.58;;
55300;SDS011;58302;51.446;-2.000;2022-07-29T03:33:15;6.80;;;3.38;;
55300;SDS011;58302;51.446;-2.000;2022-07-29T03:35:41;6.90;;;3.72;;
55300;SDS011;58302;51.446;-2.000;2022-07-29T03:38:07;5.88;;;3.33;;
55300;SDS011;58302;51.446;-2.000;2022-07-29T03:40:35;4.85;;;3.20;;
55300;SDS011;58302;51.446;-2.000;2022-07-29T03:43:03;5.07;;;3.53;;
55300;SDS011;58302;51.446;-2.000;2022-07-29T03:45:31;4.43;;;3.45;;
55300;SDS011;58302;51.446;-2.000;2022-07-29T03:48:01;5.20;;;4.70;;
55300;SDS011;58302;51.446;-2.000;2022-07-29T03:50:31;4.72;;;3.28;;
55300;SDS011;58302;51.446;-2.000;2022-07-29T03:52:59;5.10;;;3.55;;
55300;SDS011;58302;51.446;-2.000;2022-07-29T03:55:26;4.03;;;3.20;;
55300;SDS011;58302;51.446;-2.000;2022-07-29T03:57:54;3.97;;;3.50;;
55300;SDS011;58302;51.446;-2.000;2022-07-29T04:00:23;4.40;;;3.78;;
55300;SDS011;58302;51.446;-2.000;2022-07-29T04:02:50;6.35;;;3.30;;
55300;SDS011;58302;51.446;-2.000;2022-07-29T04:05:16;6.22;;;3.92;;
55300;SDS011;58302;51.446;-2.000;2022-07-29T04:07:44;6.55;;;4.10;;
55300;SDS011;58302;51.446;-2.000;2022-07-29T04:10:10;7.32;;;4.05;;
55300;SDS011;58302;51.446;-2.000;2022-07-29T04:12:36;9.35;;;5.03;;
55300;SDS011;58302;51.446;-2.000;2022-07-29T04:15:03;6.38;;;3.92;;
55300;SDS011;58302;51.446;-2.000;2022-07-29T04:17:29;5.95;;;3.88;;
55300;SDS011;58302;51.446;-2.000;2022-07-29T04:19:55;8.38;;;4.78;;
55300;SDS011;58302;51.446;-2.000;2022-07-29T04:22:21;6.18;;;4.57;;
55300;SDS011;58302;51.446;-2.000;2022-07-29T04:24:47;5.53;;;4.03;;
55300;SDS011;58302;51.446;-2.000;2022-07-29T04:27:13;6.03;;;3.83;;
55300;SDS011;58302;51.446;-2.000;2022-07-29T04:29:39;5.72;;;4.13;;
55300;SDS011;58302;51.446;-2.000;2022-07-29T04:32:05;6.38;;;3.83;;
55300;SDS011;58302;51.446;-2.000;2022-07-29T04:34:31;6.30;;;3.63;;
55300;SDS011;58302;51.446;-2.000;2022-07-29T04:36:57;5.47;;;3.47;;
55300;SDS011;58302;51.446;-2.000;2022-07-29T04:39:24;8.65;;;4.15;;
55300;SDS011;58302;51.446;-2.000;2022-07-29T04:41:50;4.70;;;3.35;;
55300;SDS011;58302;51.446;-2.000;2022-07-29T04:44:16;4.45;;;4.00;;
55300;SDS011;58302;51.446;-2.000;2022-07-29T04:46:42;5.93;;;3.63;;
55300;SDS011;58302;51.446;-2.000;2022-07-29T04:49:08;6.43;;;3.40;;
55300;SDS011;58302;51.446;-2.000;2022-07-29T04:51:34;4.60;;;3.10;;
55300;SDS011;58302;51.446;-2.000;2022-07-29T04:54:00;6.55;;;3.70;;
55300;SDS011;58302;51.446;-2.000;2022-07-29T04:56:26;3.63;;;3.17;;
55300;SDS011;58302;51.446;-2.000;2022-07-29T04:58:52;4.55;;;2.92;;
55300;SDS011;58302;51.446;-2.000;2022-07-29T05:01:18;3.85;;;3.55;;
55300;SDS011;58302;51.446;-2.000;2022-07-29T05:03:45;4.97;;;2.70;;
55300;SDS011;58302;51.446;-2.000;2022-07-29T05:06:11;4.97;;;2.92;;
55300;SDS011;58302;51.446;-2.000;2022-07-29T05:08:37;5.68;;;3.42;;
55300;SDS011;58302;51.446;-2.000;2022-07-29T05:11:03;4.57;;;3.58;;
55300;SDS011;58302;51.446;-2.000;2022-07-29T05:13:29;3.95;;;3.58;;
55300;SDS011;58302;51.446;-2.000;2022-07-29T05:15:55;4.18;;;2.80;;
55300;SDS011;58302;51.446;-2.000;2022-07-29T05:18:24;3.40;;;2.65;;
55300;SDS011;58302;51.446;-2.000;2022-07-29T05:20:50;7.97;;;3.17;;
55300;SDS011;58302;51.446;-2.000;2022-07-29T05:23:17;5.95;;;3.00;;
55300;SDS011;58302;51.446;-2.000;2022-07-29T05:25:43;5.95;;;3.60;;
55300;SDS011;58302;51.446;-2.000;2022-07-29T05:28:09;4.68;;;3.83;;
55300;SDS011;58302;51.446;-2.000;2022-07-29T05:30:35;7.07;;;3.35;;
55300;SDS011;58302;51.446;-2.000;2022-07-29T05:33:01;6.25;;;3.90;;
55300;SDS011;58302;51.446;-2.000;2022-07-29T05:35:26;5.30;;;3.35;;
55300;SDS011;58302;51.446;-2.000;2022-07-29T05:37:52;4.32;;;3.25;;
55300;SDS011;58302;51.446;-2.000;2022-07-29T05:40:18;5.57;;;3.08;;
55300;SDS011;58302;51.446;-2.000;2022-07-29T05:42:45;3.88;;;3.15;;
55300;SDS011;58302;51.446;-2.000;2022-07-29T05:45:11;9.38;;;3.35;;
55300;SDS011;58302;51.446;-2.000;2022-07-29T05:47:37;7.03;;;3.40;;
55300;SDS011;58302;51.446;-2.000;2022-07-29T05:50:03;4.40;;;3.53;;
55300;SDS011;58302;51.446;-2.000;2022-07-29T05:52:29;4.10;;;3.35;;
55300;SDS011;58302;51.446;-2.000;2022-07-29T05:54:55;7.07;;;3.72;;
55300;SDS011;58302;51.446;-2.000;2022-07-29T05:57:22;5.38;;;3.28;;
55300;SDS011;58302;51.446;-2.000;2022-07-29T05:59:50;8.35;;;3.67;;
55300;SDS011;58302;51.446;-2.000;2022-07-29T06:02:16;9.02;;;3.40;;
55300;SDS011;58302;51.446;-2.000;2022-07-29T06:04:43;6.03;;;3.55;;
55300;SDS011;58302;51.446;-2.000;2022-07-29T06:07:09;5.28;;;3.10;;
55300;SDS011;58302;51.446;-2.000;2022-07-29T06:09:36;6.25;;;2.83;;
55300;SDS011;58302;51.446;-2.000;2022-07-29T06:12:02;5.43;;;3.08;;
55300;SDS011;58302;51.446;-2.000;2022-07-29T06:14:29;7.32;;;3.85;;
55300;SDS011;58302;51.446;-2.000;2022-07-29T06:16:55;6.80;;;3.63;;
55300;SDS011;58302;51.446;-2.000;2022-07-29T06:19:21;5.00;;;3.20;;
55300;SDS011;58302;51.446;-2.000;2022-07-29T06:21:47;5.78;;;2.95;;
55300;SDS011;58302;51.446;-2.000;2022-07-29T06:24:14;6.65;;;3.30;;
55300;SDS011;58302;51.446;-2.000;2022-07-29T06:26:41;5.72;;;3.50;;
55300;SDS011;58302;51.446;-2.000;2022-07-29T06:29:08;6.60;;;3.47;;
55300;SDS011;58302;51.446;-2.000;2022-07-29T06:31:36;4.53;;;2.85;;
55300;SDS011;58302;51.446;-2.000;2022-07-29T06:34:02;3.78;;;3.03;;
55300;SDS011;58302;51.446;-2.000;2022-07-29T06:36:35;7.38;;;2.90;;
55300;SDS011;58302;51.446;-2.000;2022-07-29T06:39:06;10.73;;;3.20;;
55300;SDS011;58302;51.446;-2.000;2022-07-29T06:41:34;7.55;;;3.08;;
55300;SDS011;58302;51.446;-2.000;2022-07-29T06:44:01;5.82;;;3.35;;
55300;SDS011;58302;51.446;-2.000;2022-07-29T06:46:28;7.13;;;3.35;;
55300;SDS011;58302;51.446;-2.000;2022-07-29T06:48:54;7.78;;;3.03;;
55300;SDS011;58302;51.446;-2.000;2022-07-29T06:51:20;4.93;;;2.60;;
55300;SDS011;58302;51.446;-2.000;2022-07-29T06:53:46;4.22;;;2.47;;
55300;SDS011;58302;51.446;-2.000;2022-07-29T06:56:12;8.45;;;3.97;;
55300;SDS011;58302;51.446;-2.000;2022-07-29T06:58:39;5.25;;;2.50;;
55300;SDS011;58302;51.446;-2.000;2022-07-29T07:01:06;3.03;;;2.17;;
55300;SDS011;58302;51.446;-2.000;2022-07-29T07:03:32;4.20;;;2.65;;
55300;SDS011;58302;51.446;-2.000;2022-07-29T07:05:58;5.18;;;2.53;;
55300;SDS011;58302;51.446;-2.000;2022-07-29T07:08:24;4.78;;;2.70;;
55300;SDS011;58302;51.446;-2.000;2022-07-29T07:10:51;6.13;;;2.38;;
55300;SDS011;58302;51.446;-2.000;2022-07-29T07:13:18;3.58;;;2.92;;
55300;SDS011;58302;51.446;-2.000;2022-07-29T07:15:45;3.85;;;2.00;;
55300;SDS011;58302;51.446;-2.000;2022-07-29T07:18:13;4.05;;;2.22;;
55300;SDS011;58302;51.446;-2.000;2022-07-29T07:20:40;5.03;;;2.80;;
55300;SDS011;58302;51.446;-2.000;2022-07-29T07:23:06;4.07;;;2.50;;
55300;SDS011;58302;51.446;-2.000;2022-07-29T07:25:33;4.97;;;2.83;;
55300;SDS011;58302;51.446;-2.000;2022-07-29T07:27:59;4.05;;;2.03;;
55300;SDS011;58302;51.446;-2.000;2022-07-29T07:30:25;6.03;;;2.50;;
55300;SDS011;58302;51.446;-2.000;2022-07-29T07:32:53;5.22;;;2.60;;
55300;SDS011;58302;51.446;-2.000;2022-07-29T07:35:19;3.67;;;2.22;;
55300;SDS011;58302;51.446;-2.000;2022-07-29T07:37:45;6.05;;;2.40;;
55300;SDS011;58302;51.446;-2.000;2022-07-29T07:40:12;3.60;;;2.05;;
55300;SDS011;58302;51.446;-2.000;2022-07-29T07:42:38;5.90;;;2.40;;
55300;SDS011;58302;51.446;-2.000;2022-07-29T07:45:06;7.63;;;2.92;;
55300;SDS011;58302;51.446;-2.000;2022-07-29T07:47:37;5.82;;;2.28;;
55300;SDS011;58302;51.446;-2.000;2022-07-29T07:50:04;8.30;;;2.97;;
55300;SDS011;58302;51.446;-2.000;2022-07-29T07:52:32;7.45;;;2.50;;
55300;SDS011;58302;51.446;-2.000;2022-07-29T07:54:58;5.20;;;3.25;;
55300;SDS011;58302;51.446;-2.000;2022-07-29T07:57:25;4.45;;;2.03;;
55300;SDS011;58302;51.446;-2.000;2022-07-29T07:59:51;4.07;;;1.73;;
55300;SDS011;58302;51.446;-2.000;2022-07-29T08:02:17;5.90;;;1.83;;
55300;SDS011;58302;51.446;-2.000;2022-07-29T08:04:43;6.43;;;2.05;;
55300;SDS011;58302;51.446;-2.000;2022-07-29T08:07:09;5.63;;;2.13;;
55300;SDS011;58302;51.446;-2.000;2022-07-29T08:09:35;5.50;;;2.78;;
55300;SDS011;58302;51.446;-2.000;2022-07-29T08:12:01;2.88;;;1.58;;
55300;SDS011;58302;51.446;-2.000;2022-07-29T08:14:29;5.10;;;2.17;;
55300;SDS011;58302;51.446;-2.000;2022-07-29T08:16:56;4.07;;;2.00;;
55300;SDS011;58302;51.446;-2.000;2022-07-29T08:19:22;4.85;;;1.80;;
55300;SDS011;58302;51.446;-2.000;2022-07-29T08:21:48;6.88;;;2.13;;
55300;SDS011;58302;51.446;-2.000;2022-07-29T08:24:14;5.40;;;2.05;;
55300;SDS011;58302;51.446;-2.000;2022-07-29T08:26:59;5.47;;;2.15;;
55300;SDS011;58302;51.446;-2.000;2022-07-29T08:29:25;4.15;;;1.90;;
55300;SDS011;58302;51.446;-2.000;2022-07-29T08:31:50;9.48;;;2.28;;
55300;SDS011;58302;51.446;-2.000;2022-07-29T08:34:16;3.17;;;1.73;;
55300;SDS011;58302;51.446;-2.000;2022-07-29T08:36:42;3.72;;;1.80;;
55300;SDS011;58302;51.446;-2.000;2022-07-29T08:39:08;4.55;;;1.98;;
55300;SDS011;58302;51.446;-2.000;2022-07-29T08:41:35;4.85;;;1.75;;
55300;SDS011;58302;51.446;-2.000;2022-07-29T08:44:01;3.78;;;2.10;;
55300;SDS011;58302;51.446;-2.000;2022-07-29T08:46:27;3.22;;;1.70;;
55300;SDS011;58302;51.446;-2.000;2022-07-29T08:48:53;2.03;;;1.60;;
55300;SDS011;58302;51.446;-2.000;2022-07-29T08:51:21;2.10;;;1.67;;
55300;SDS011;58302;51.446;-2.000;2022-07-29T08:53:48;3.55;;;1.90;;
55300;SDS011;58302;51.446;-2.000;2022-07-29T08:56:15;2.28;;;1.40;;
55300;SDS011;58302;51.446;-2.000;2022-07-29T08:58:44;4.70;;;2.33;;
55300;SDS011;58302;51.446;-2.000;2022-07-29T09:01:12;4.57;;;1.70;;
55300;SDS011;58302;51.446;-2.000;2022-07-29T09:03:41;3.53;;;1.50;;
55300;SDS011;58302;51.446;-2.000;2022-07-29T09:06:12;2.88;;;1.52;;
55300;SDS011;58302;51.446;-2.000;2022-07-29T09:08:39;4.10;;;1.70;;
55300;SDS011;58302;51.446;-2.000;2022-07-29T09:11:06;2.35;;;1.50;;
55300;SDS011;58302;51.446;-2.000;2022-07-29T09:13:33;2.95;;;1.50;;
55300;SDS011;58302;51.446;-2.000;2022-07-29T09:15:59;2.50;;;1.58;;
55300;SDS011;58302;51.446;-2.000;2022-07-29T09:18:38;4.30;;;1.73;;
55300;SDS011;58302;51.446;-2.000;2022-07-29T09:21:06;3.80;;;1.70;;
55300;SDS011;58302;51.446;-2.000;2022-07-29T09:24:03;1.73;;;1.33;;
55300;SDS011;58302;51.446;-2.000;2022-07-29T09:26:38;2.53;;;1.30;;
55300;SDS011;58302;51.446;-2.000;2022-07-29T09:31:37;3.55;;;1.55;;
55300;SDS011;58302;51.446;-2.000;2022-07-29T09:34:05;4.07;;;1.70;;
55300;SDS011;58302;51.446;-2.000;2022-07-29T09:36:45;3.35;;;1.40;;
55300;SDS011;58302;51.446;-2.000;2022-07-29T09:39:13;2.88;;;1.77;;
55300;SDS011;58302;51.446;-2.000;2022-07-29T09:41:47;3.75;;;1.40;;
55300;SDS011;58302;51.446;-2.000;2022-07-29T09:44:21;1.50;;;1.35;;
55300;SDS011;58302;51.446;-2.000;2022-07-29T09:46:53;2.90;;;1.77;;
55300;SDS011;58302;51.446;-2.000;2022-07-29T09:49:31;5.07;;;1.30;;
55300;SDS011;58302;51.446;-2.000;2022-07-29T09:52:06;4.15;;;1.40;;
55300;SDS011;58302;51.446;-2.000;2022-07-29T09:54:34;3.28;;;1.40;;
55300;SDS011;58302;51.446;-2.000;2022-07-29T09:57:04;3.20;;;1.38;;
55300;SDS011;58302;51.446;-2.000;2022-07-29T09:59:32;4.68;;;2.15;;
55300;SDS011;58302;51.446;-2.000;2022-07-29T10:01:58;1.65;;;1.10;;
55300;SDS011;58302;51.446;-2.000;2022-07-29T10:04:40;3.22;;;1.50;;
55300;SDS011;58302;51.446;-2.000;2022-07-29T10:07:07;2.50;;;1.30;;
55300;SDS011;58302;51.446;-2.000;2022-07-29T10:09:35;5.15;;;1.20;;
55300;SDS011;58302;51.446;-2.000;2022-07-29T10:12:12;3.38;;;1.67;;
55300;SDS011;58302;51.446;-2.000;2022-07-29T10:14:41;1.67;;;1.10;;
55300;SDS011;58302;51.446;-2.000;2022-07-29T10:17:08;3.15;;;1.58;;
55300;SDS011;58302;51.446;-2.000;2022-07-29T10:19:36;2.50;;;1.25;;
55300;SDS011;58302;51.446;-2.000;2022-07-29T10:22:04;3.08;;;1.65;;
55300;SDS011;58302;51.446;-2.000;2022-07-29T10:24:32;5.05;;;2.15;;
55300;SDS011;58302;51.446;-2.000;2022-07-29T10:26:59;3.65;;;1.40;;
55300;SDS011;58302;51.446;-2.000;2022-07-29T10:29:27;1.73;;;1.13;;
55300;SDS011;58302;51.446;-2.000;2022-07-29T10:37:28;4.30;;;1.45;;
55300;SDS011;58302;51.446;-2.000;2022-07-29T10:43:22;5.35;;;1.50;;
55300;SDS011;58302;51.446;-2.000;2022-07-29T10:45:55;3.80;;;1.30;;
55300;SDS011;58302;51.446;-2.000;2022-07-29T10:48:23;5.60;;;1.95;;
55300;SDS011;58302;51.446;-2.000;2022-07-29T10:51:02;4.30;;;1.40;;
55300;SDS011;58302;51.446;-2.000;2022-07-29T10:56:28;4.40;;;1.58;;
55300;SDS011;58302;51.446;-2.000;2022-07-29T11:01:43;4.10;;;1.38;;
55300;SDS011;58302;51.446;-2.000;2022-07-29T11:04:09;2.58;;;1.30;;
55300;SDS011;58302;51.446;-2.000;2022-07-29T11:09:27;2.03;;;1.33;;
55300;SDS011;58302;51.446;-2.000;2022-07-29T11:11:56;8.63;;;1.60;;
55300;SDS011;58302;51.446;-2.000;2022-07-29T11:14:58;3.55;;;1.60;;
55300;SDS011;58302;51.446;-2.000;2022-07-29T11:17:24;3.10;;;1.38;;
55300;SDS011;58302;51.446;-2.000;2022-07-29T11:19:51;1.88;;;1.35;;
55300;SDS011;58302;51.446;-2.000;2022-07-29T11:22:33;3.50;;;2.15;;
55300;SDS011;58302;51.446;-2.000;2022-07-29T11:25:16;5.30;;;1.48;;
55300;SDS011;58302;51.446;-2.000;2022-07-29T11:27:46;3.33;;;2.28;;
55300;SDS011;58302;51.446;-2.000;2022-07-29T11:30:13;3.85;;;1.48;;
55300;SDS011;58302;51.446;-2.000;2022-07-29T11:32:40;3.28;;;1.80;;
55300;SDS011;58302;51.446;-2.000;2022-07-29T11:35:14;1.83;;;1.38;;
55300;SDS011;58302;51.446;-2.000;2022-07-29T11:37:41;3.75;;;1.75;;
55300;SDS011;58302;51.446;-2.000;2022-07-29T11:40:07;3.25;;;1.30;;
55300;SDS011;58302;51.446;-2.000;2022-07-29T11:45:02;2.15;;;1.42;;
55300;SDS011;58302;51.446;-2.000;2022-07-29T11:47:36;1.58;;;1.10;;
55300;SDS011;58302;51.446;-2.000;2022-07-29T11:50:04;3.63;;;1.30;;
55300;SDS011;58302;51.446;-2.000;2022-07-29T11:52:40;2.65;;;1.25;;
55300;SDS011;58302;51.446;-2.000;2022-07-29T11:55:15;2.33;;;1.60;;
55300;SDS011;58302;51.446;-2.000;2022-07-29T11:57:53;1.77;;;1.38;;
55300;SDS011;58302;51.446;-2.000;2022-07-29T12:00:29;3.33;;;1.40;;
55300;SDS011;58302;51.446;-2.000;2022-07-29T12:03:08;2.00;;;1.13;;
55300;SDS011;58302;51.446;-2.000;2022-07-29T12:05:40;1.50;;;1.00;;
55300;SDS011;58302;51.446;-2.000;2022-07-29T12:08:11;2.53;;;1.35;;
55300;SDS011;58302;51.446;-2.000;2022-07-29T12:10:39;1.85;;;1.02;;
55300;SDS011;58302;51.446;-2.000;2022-07-29T12:13:06;2.03;;;1.30;;
55300;SDS011;58302;51.446;-2.000;2022-07-29T12:15:33;2.22;;;1.40;;
55300;SDS011;58302;51.446;-2.000;2022-07-29T12:18:22;2.35;;;1.20;;
55300;SDS011;58302;51.446;-2.000;2022-07-29T12:20:47;1.88;;;1.10;;
55300;SDS011;58302;51.446;-2.000;2022-07-29T12:23:16;3.55;;;1.25;;
55300;SDS011;58302;51.446;-2.000;2022-07-29T12:25:43;2.58;;;1.50;;
55300;SDS011;58302;51.446;-2.000;2022-07-29T12:28:11;1.92;;;1.30;;
55300;SDS011;58302;51.446;-2.000;2022-07-29T12:30:39;2.20;;;1.50;;
55300;SDS011;58302;51.446;-2.000;2022-07-29T12:35:59;2.10;;;1.13;;
55300;SDS011;58302;51.446;-2.000;2022-07-29T12:38:33;1.80;;;1.27;;
55300;SDS011;58302;51.446;-2.000;2022-07-29T12:41:02;4.53;;;1.48;;
55300;SDS011;58302;51.446;-2.000;2022-07-29T12:43:29;1.67;;;1.15;;
55300;SDS011;58302;51.446;-2.000;2022-07-29T12:45:55;2.63;;;1.30;;
55300;SDS011;58302;51.446;-2.000;2022-07-29T12:48:35;3.33;;;1.30;;
55300;SDS011;58302;51.446;-2.000;2022-07-29T12:51:08;2.00;;;1.30;;
55300;SDS011;58302;51.446;-2.000;2022-07-29T12:53:37;2.63;;;1.35;;
55300;SDS011;58302;51.446;-2.000;2022-07-29T12:56:03;2.17;;;1.33;;
55300;SDS011;58302;51.446;-2.000;2022-07-29T12:58:37;2.45;;;1.40;;
55300;SDS011;58302;51.446;-2.000;2022-07-29T13:01:09;2.33;;;1.40;;
55300;SDS011;58302;51.446;-2.000;2022-07-29T13:03:50;2.25;;;1.10;;
55300;SDS011;58302;51.446;-2.000;2022-07-29T13:09:19;5.93;;;1.55;;
55300;SDS011;58302;51.446;-2.000;2022-07-29T13:11:49;2.75;;;1.50;;
55300;SDS011;58302;51.446;-2.000;2022-07-29T13:19:43;1.45;;;1.00;;
55300;SDS011;58302;51.446;-2.000;2022-07-29T13:22:13;1.38;;;1.10;;
55300;SDS011;58302;51.446;-2.000;2022-07-29T13:24:51;2.47;;;1.20;;
55300;SDS011;58302;51.446;-2.000;2022-07-29T13:27:22;3.72;;;1.48;;
55300;SDS011;58302;51.446;-2.000;2022-07-29T13:29:53;3.30;;;1.52;;
55300;SDS011;58302;51.446;-2.000;2022-07-29T13:32:22;1.85;;;1.20;;
55300;SDS011;58302;51.446;-2.000;2022-07-29T13:34:49;2.70;;;1.27;;
55300;SDS011;58302;51.446;-2.000;2022-07-29T13:37:15;3.40;;;1.40;;
55300;SDS011;58302;51.446;-2.000;2022-07-29T13:39:42;2.13;;;1.10;;
55300;SDS011;58302;51.446;-2.000;2022-07-29T13:42:08;2.00;;;1.38;;
55300;SDS011;58302;51.446;-2.000;2022-07-29T13:44:35;1.73;;;1.20;;
55300;SDS011;58302;51.446;-2.000;2022-07-29T13:47:01;3.17;;;1.20;;
55300;SDS011;58302;51.446;-2.000;2022-07-29T13:49:27;2.83;;;1.70;;
55300;SDS011;58302;51.446;-2.000;2022-07-29T13:51:53;1.77;;;1.23;;
55300;SDS011;58302;51.446;-2.000;2022-07-29T13:54:19;1.73;;;1.33;;
55300;SDS011;58302;51.446;-2.000;2022-07-29T13:56:45;3.47;;;1.63;;
55300;SDS011;58302;51.446;-2.000;2022-07-29T13:59:12;2.58;;;1.48;;
55300;SDS011;58302;51.446;-2.000;2022-07-29T14:01:38;1.75;;;1.10;;
55300;SDS011;58302;51.446;-2.000;2022-07-29T14:04:07;1.67;;;1.00;;
55300;SDS011;58302;51.446;-2.000;2022-07-29T14:06:34;2.75;;;1.10;;
55300;SDS011;58302;51.446;-2.000;2022-07-29T14:09:00;1.20;;;1.00;;
55300;SDS011;58302;51.446;-2.000;2022-07-29T14:11:26;1.30;;;1.10;;
55300;SDS011;58302;51.446;-2.000;2022-07-29T14:13:52;1.50;;;1.20;;
55300;SDS011;58302;51.446;-2.000;2022-07-29T14:16:18;2.00;;;1.35;;
55300;SDS011;58302;51.446;-2.000;2022-07-29T14:18:45;1.98;;;1.70;;
55300;SDS011;58302;51.446;-2.000;2022-07-29T14:21:11;3.13;;;1.52;;
55300;SDS011;58302;51.446;-2.000;2022-07-29T14:23:37;3.28;;;1.20;;
55300;SDS011;58302;51.446;-2.000;2022-07-29T14:26:03;2.22;;;1.40;;
55300;SDS011;58302;51.446;-2.000;2022-07-29T14:28:29;3.00;;;1.27;;
55300;SDS011;58302;51.446;-2.000;2022-07-29T14:30:55;2.45;;;1.40;;
55300;SDS011;58302;51.446;-2.000;2022-07-29T14:33:21;2.88;;;1.40;;
55300;SDS011;58302;51.446;-2.000;2022-07-29T14:35:47;2.55;;;1.35;;
55300;SDS011;58302;51.446;-2.000;2022-07-29T14:38:13;1.55;;;1.13;;
55300;SDS011;58302;51.446;-2.000;2022-07-29T14:40:39;2.50;;;1.35;;
55300;SDS011;58302;51.446;-2.000;2022-07-29T14:43:05;1.75;;;1.30;;
55300;SDS011;58302;51.446;-2.000;2022-07-29T14:45:31;3.17;;;1.30;;
55300;SDS011;58302;51.446;-2.000;2022-07-29T14:47:57;2.90;;;1.40;;
55300;SDS011;58302;51.446;-2.000;2022-07-29T14:50:24;1.45;;;0.95;;
55300;SDS011;58302;51.446;-2.000;2022-07-29T14:52:51;2.20;;;1.30;;
55300;SDS011;58302;51.446;-2.000;2022-07-29T14:55:18;1.65;;;1.10;;
55300;SDS011;58302;51.446;-2.000;2022-07-29T14:57:45;2.92;;;1.30;;
55300;SDS011;58302;51.446;-2.000;2022-07-29T15:00:12;1.17;;;0.98;;
55300;SDS011;58302;51.446;-2.000;2022-07-29T15:02:38;1.45;;;1.10;;
55300;SDS011;58302;51.446;-2.000;2022-07-29T15:05:04;2.58;;;1.30;;
55300;SDS011;58302;51.446;-2.000;2022-07-29T15:07:31;2.22;;;1.20;;
55300;SDS011;58302;51.446;-2.000;2022-07-29T15:09:57;1.02;;;0.90;;
55300;SDS011;58302;51.446;-2.000;2022-07-29T15:12:23;1.80;;;1.65;;
55300;SDS011;58302;51.446;-2.000;2022-07-29T15:14:49;1.85;;;0.88;;
55300;SDS011;58302;51.446;-2.000;2022-07-29T15:17:15;2.75;;;1.60;;
55300;SDS011;58302;51.446;-2.000;2022-07-29T15:19:41;1.48;;;1.38;;
55300;SDS011;58302;51.446;-2.000;2022-07-29T15:22:07;2.30;;;1.20;;
55300;SDS011;58302;51.446;-2.000;2022-07-29T15:24:33;2.95;;;1.40;;
55300;SDS011;58302;51.446;-2.000;2022-07-29T15:27:00;2.95;;;1.38;;
55300;SDS011;58302;51.446;-2.000;2022-07-29T15:29:26;2.42;;;1.30;;